GBNKE EGNW-EGNJ
Flight info
| Callsign | GBNKE |
|---|---|
| Flight time | 0h 13m |
| Altitude | 2500 |
| Route | DCT |
| Aircraft | PA24/L-ICAO/7000 |
Departure
| Time | 2026-05-04 17:42 |
|---|---|
| Airport | Wickenby Aerodrome (EGNW) |
Arrival
| Time | 2026-05-04 17:55 |
|---|---|
| Airport | Humberside Airport (EGNJ) |
| Time | Latitude | Longitude | Altitude | Speed | Heading |
|---|---|---|---|---|---|
| 2026-05-04 17:36 | 53.31817 | -0.34516 | 86 ft | 0 kts | 345° |
| 2026-05-04 17:38 | 53.31817 | -0.34517 | 86 ft | 0 kts | 345° |
| 2026-05-04 17:39 | 53.31817 | -0.34516 | 86 ft | 0 kts | 345° |
| 2026-05-04 17:39 | 53.31817 | -0.34517 | 86 ft | 0 kts | 345° |
| 2026-05-04 17:40 | 53.31817 | -0.34516 | 87 ft | 0 kts | 345° |
| 2026-05-04 17:40 | 53.31817 | -0.34517 | 87 ft | 0 kts | 345° |
| 2026-05-04 17:40 | 53.31835 | -0.34532 | 87 ft | 8 kts | 324° |
| 2026-05-04 17:40 | 53.31859 | -0.34599 | 87 ft | 4 kts | 261° |
| 2026-05-04 17:41 | 53.31885 | -0.34690 | 86 ft | 12 kts | 289° |
| 2026-05-04 17:41 | 53.31795 | -0.34795 | 91 ft | 33 kts | 204° |
| 2026-05-04 17:41 | 53.31452 | -0.35075 | 107 ft | 69 kts | 206° |
| 2026-05-04 17:41 | 53.31025 | -0.35460 | 209 ft | 70 kts | 208° |
| 2026-05-04 17:42 | 53.30563 | -0.35876 | 322 ft | 77 kts | 202° |
| 2026-05-04 17:42 | 53.30033 | -0.35880 | 444 ft | 82 kts | 155° |
| 2026-05-04 17:42 | 53.29708 | -0.35150 | 589 ft | 83 kts | 97° |
| 2026-05-04 17:42 | 53.29867 | -0.34259 | 739 ft | 83 kts | 50° |
| 2026-05-04 17:43 | 53.30367 | -0.33774 | 862 ft | 84 kts | 16° |
| 2026-05-04 17:43 | 53.30924 | -0.33482 | 966 ft | 87 kts | 19° |
| 2026-05-04 17:43 | 53.31458 | -0.33053 | 1109 ft | 84 kts | 31° |
| 2026-05-04 17:43 | 53.31951 | -0.32477 | 1180 ft | 89 kts | 37° |
| 2026-05-04 17:44 | 53.32418 | -0.31800 | 1306 ft | 88 kts | 44° |
| 2026-05-04 17:44 | 53.32834 | -0.31042 | 1400 ft | 89 kts | 49° |
| 2026-05-04 17:44 | 53.33243 | -0.30273 | 1512 ft | 89 kts | 47° |
| 2026-05-04 17:44 | 53.33681 | -0.29540 | 1617 ft | 89 kts | 42° |
| 2026-05-04 17:45 | 53.34210 | -0.28954 | 1675 ft | 95 kts | 23° |
| 2026-05-04 17:45 | 53.34814 | -0.28625 | 1732 ft | 98 kts | 14° |
| 2026-05-04 17:45 | 53.35472 | -0.28382 | 1829 ft | 97 kts | 10° |
| 2026-05-04 17:45 | 53.36148 | -0.28174 | 1846 ft | 104 kts | 9° |
| 2026-05-04 17:46 | 53.36864 | -0.27964 | 1926 ft | 103 kts | 10° |
| 2026-05-04 17:46 | 53.37562 | -0.27708 | 1986 ft | 104 kts | 13° |
| 2026-05-04 17:46 | 53.38278 | -0.27430 | 2030 ft | 106 kts | 12° |
| 2026-05-04 17:46 | 53.39000 | -0.27153 | 2076 ft | 108 kts | 13° |
| 2026-05-04 17:47 | 53.39726 | -0.26819 | 2131 ft | 108 kts | 16° |
| 2026-05-04 17:47 | 53.40463 | -0.26513 | 2150 ft | 111 kts | 10° |
| 2026-05-04 17:47 | 53.41218 | -0.26359 | 2222 ft | 108 kts | 4° |
| 2026-05-04 17:47 | 53.41974 | -0.26297 | 2251 ft | 110 kts | 2° |
| 2026-05-04 17:48 | 53.42734 | -0.26278 | 2279 ft | 109 kts | 360° |
| 2026-05-04 17:48 | 53.43497 | -0.26274 | 2285 ft | 110 kts | 1° |
| 2026-05-04 17:48 | 53.44259 | -0.26304 | 2276 ft | 110 kts | 356° |
| 2026-05-04 17:48 | 53.45023 | -0.26457 | 2268 ft | 110 kts | 350° |
| 2026-05-04 17:49 | 53.45767 | -0.26744 | 2242 ft | 110 kts | 345° |
| 2026-05-04 17:49 | 53.46512 | -0.27057 | 2237 ft | 110 kts | 348° |
| 2026-05-04 17:49 | 53.47257 | -0.27249 | 2224 ft | 110 kts | 354° |
| 2026-05-04 17:49 | 53.48023 | -0.27339 | 2216 ft | 110 kts | 355° |
| 2026-05-04 17:50 | 53.48719 | -0.27434 | 2194 ft | 110 kts | 355° |
| 2026-05-04 17:50 | 53.49486 | -0.27534 | 2184 ft | 110 kts | 355° |
| 2026-05-04 17:50 | 53.50224 | -0.27873 | 2135 ft | 113 kts | 329° |
| 2026-05-04 17:50 | 53.50702 | -0.28910 | 2077 ft | 115 kts | 288° |
| 2026-05-04 17:51 | 53.50945 | -0.30123 | 2135 ft | 108 kts | 291° |
| 2026-05-04 17:51 | 53.51189 | -0.31358 | 2088 ft | 110 kts | 286° |
| 2026-05-04 17:51 | 53.51352 | -0.32496 | 2083 ft | 97 kts | 281° |
| 2026-05-04 17:51 | 53.51509 | -0.33678 | 1887 ft | 101 kts | 285° |
| 2026-05-04 17:52 | 53.51715 | -0.34757 | 1767 ft | 100 kts | 287° |
| 2026-05-04 17:52 | 53.51895 | -0.35896 | 1593 ft | 98 kts | 280° |
| 2026-05-04 17:52 | 53.51999 | -0.37026 | 1402 ft | 99 kts | 278° |
| 2026-05-04 17:52 | 53.52125 | -0.38127 | 1237 ft | 97 kts | 283° |
| 2026-05-04 17:53 | 53.52436 | -0.39129 | 990 ft | 101 kts | 320° |
| 2026-05-04 17:53 | 53.53098 | -0.39518 | 768 ft | 100 kts | 8° |
| 2026-05-04 17:53 | 53.53669 | -0.38976 | 658 ft | 92 kts | 52° |
| 2026-05-04 17:53 | 53.54029 | -0.38158 | 621 ft | 86 kts | 49° |
| 2026-05-04 17:54 | 53.54464 | -0.37516 | 639 ft | 80 kts | 39° |
| 2026-05-04 17:54 | 53.54932 | -0.36956 | 567 ft | 84 kts | 34° |
| 2026-05-04 17:54 | 53.55443 | -0.36488 | 439 ft | 85 kts | 27° |
| 2026-05-04 17:54 | 53.55803 | -0.36233 | 367 ft | 83 kts | 28° |
| 2026-05-04 17:55 | 53.56341 | -0.35854 | 231 ft | 83 kts | 27° |
| 2026-05-04 17:55 | 53.56861 | -0.35484 | 125 ft | 79 kts | 27° |
| 2026-05-04 17:55 | 53.57330 | -0.35153 | 101 ft | 66 kts | 22° |
| 2026-05-04 17:55 | 53.57600 | -0.34971 | 98 ft | 15 kts | 24° |
| 2026-05-04 17:56 | 53.57685 | -0.34911 | 95 ft | 14 kts | 22° |
| 2026-05-04 17:56 | 53.57783 | -0.34841 | 88 ft | 16 kts | 20° |
| 2026-05-04 17:56 | 53.57850 | -0.34912 | 85 ft | 12 kts | 295° |
| 2026-05-04 17:56 | 53.57910 | -0.34988 | 78 ft | 11 kts | 9° |
| 2026-05-04 17:57 | 53.57982 | -0.34992 | 77 ft | 8 kts | 340° |
| 2026-05-04 17:57 | 53.58005 | -0.35027 | 77 ft | 4 kts | 204° |
| 2026-05-04 17:57 | 53.57996 | -0.35049 | 77 ft | 2 kts | 280° |
| 2026-05-04 17:57 | 53.57999 | -0.35062 | 77 ft | 0 kts | 289° |